sensor_id;sensor_type;location;lat;lon;timestamp;pressure;altitude;pressure_sealevel;temperature;humidity
67457;BME280;54319;52.038;4.640;2023-02-16T00:01:49;102518.88;;;4.91;85.06
67457;BME280;54319;52.038;4.640;2023-02-16T00:04:19;102527.47;;;4.96;85.61
67457;BME280;54319;52.038;4.640;2023-02-16T00:06:47;102522.06;;;4.96;86.10
67457;BME280;54319;52.038;4.640;2023-02-16T00:09:15;102516.03;;;4.92;86.28
67457;BME280;54319;52.038;4.640;2023-02-16T00:11:42;102520.34;;;4.95;86.41
67457;BME280;54319;52.038;4.640;2023-02-16T00:14:29;102462.19;;;4.58;86.39
67457;BME280;54319;52.038;4.640;2023-02-16T00:16:57;102521.56;;;4.91;86.57
67457;BME280;54319;52.038;4.640;2023-02-16T00:19:27;102519.84;;;4.90;86.74
67457;BME280;54319;52.038;4.640;2023-02-16T00:21:56;102481.44;;;4.65;86.78
67457;BME280;54319;52.038;4.640;2023-02-16T00:24:25;102518.16;;;4.89;86.90
67457;BME280;54319;52.038;4.640;2023-02-16T00:26:52;102522.34;;;4.93;86.95
67457;BME280;54319;52.038;4.640;2023-02-16T00:29:24;102528.25;;;4.87;86.99
67457;BME280;54319;52.038;4.640;2023-02-16T00:31:53;102522.53;;;4.80;87.03
67457;BME280;54319;52.038;4.640;2023-02-16T00:34:26;102525.09;;;4.82;87.56
67457;BME280;54319;52.038;4.640;2023-02-16T00:36:54;102519.41;;;4.85;87.44
67457;BME280;54319;52.038;4.640;2023-02-16T00:39:23;102524.69;;;4.86;87.29
67457;BME280;54319;52.038;4.640;2023-02-16T00:41:51;102507.59;;;4.86;87.29
67457;BME280;54319;52.038;4.640;2023-02-16T00:44:22;102514.88;;;4.85;87.34
67457;BME280;54319;52.038;4.640;2023-02-16T00:46:52;102499.44;;;4.76;87.21
67457;BME280;54319;52.038;4.640;2023-02-16T00:49:20;102511.19;;;4.86;87.04
67457;BME280;54319;52.038;4.640;2023-02-16T00:51:47;102513.16;;;4.84;87.15
67457;BME280;54319;52.038;4.640;2023-02-16T00:54:14;102513.44;;;4.81;87.28
67457;BME280;54319;52.038;4.640;2023-02-16T00:56:42;102499.22;;;4.68;87.77
67457;BME280;54319;52.038;4.640;2023-02-16T00:59:15;102508.88;;;4.82;87.19
67457;BME280;54319;52.038;4.640;2023-02-16T01:01:43;102508.28;;;4.78;87.76
67457;BME280;54319;52.038;4.640;2023-02-16T01:04:18;102509.28;;;4.77;87.62
67457;BME280;54319;52.038;4.640;2023-02-16T01:06:48;102503.72;;;4.78;87.97
67457;BME280;54319;52.038;4.640;2023-02-16T01:09:33;102502.00;;;4.77;87.52
67457;BME280;54319;52.038;4.640;2023-02-16T01:12:19;102503.72;;;4.78;87.58
67457;BME280;54319;52.038;4.640;2023-02-16T01:14:50;102499.63;;;4.84;87.75
67457;BME280;54319;52.038;4.640;2023-02-16T01:17:18;102494.06;;;4.86;87.58
67457;BME280;54319;52.038;4.640;2023-02-16T01:19:47;102497.22;;;4.91;87.29
67457;BME280;54319;52.038;4.640;2023-02-16T01:22:15;102497.13;;;4.92;87.21
67457;BME280;54319;52.038;4.640;2023-02-16T01:24:42;102487.38;;;4.80;87.15
67457;BME280;54319;52.038;4.640;2023-02-16T01:27:09;102467.25;;;4.73;87.13
67457;BME280;54319;52.038;4.640;2023-02-16T01:29:38;102482.25;;;4.77;87.11
67457;BME280;54319;52.038;4.640;2023-02-16T01:32:05;102475.25;;;4.74;86.90
67457;BME280;54319;52.038;4.640;2023-02-16T01:34:33;102473.00;;;4.80;87.12
67457;BME280;54319;52.038;4.640;2023-02-16T01:37:01;102494.06;;;4.86;87.33
67457;BME280;54319;52.038;4.640;2023-02-16T01:39:28;102496.41;;;4.90;87.06
67457;BME280;54319;52.038;4.640;2023-02-16T01:42:02;102501.81;;;4.90;87.27
67457;BME280;54319;52.038;4.640;2023-02-16T01:44:38;102470.44;;;4.78;87.34
67457;BME280;54319;52.038;4.640;2023-02-16T01:47:15;102482.28;;;4.87;87.12
67457;BME280;54319;52.038;4.640;2023-02-16T01:49:45;102495.28;;;4.93;87.06
67457;BME280;54319;52.038;4.640;2023-02-16T01:52:25;102476.75;;;4.88;87.05
67457;BME280;54319;52.038;4.640;2023-02-16T01:55:01;102468.75;;;4.87;86.74
67457;BME280;54319;52.038;4.640;2023-02-16T01:57:37;102483.38;;;5.05;86.56
67457;BME280;54319;52.038;4.640;2023-02-16T02:00:10;102487.66;;;5.08;86.42
67457;BME280;54319;52.038;4.640;2023-02-16T02:02:40;102471.13;;;5.01;86.24
67457;BME280;54319;52.038;4.640;2023-02-16T02:05:19;102482.84;;;5.12;86.08
67457;BME280;54319;52.038;4.640;2023-02-16T02:08:09;102488.69;;;5.17;86.03
67457;BME280;54319;52.038;4.640;2023-02-16T02:10:45;102451.63;;;5.07;85.82
67457;BME280;54319;52.038;4.640;2023-02-16T02:13:19;102476.31;;;5.24;85.45
67457;BME280;54319;52.038;4.640;2023-02-16T02:15:47;102480.75;;;5.25;85.44
67457;BME280;54319;52.038;4.640;2023-02-16T02:18:15;102457.94;;;5.18;85.28
67457;BME280;54319;52.038;4.640;2023-02-16T02:20:51;102438.50;;;5.03;85.23
67457;BME280;54319;52.038;4.640;2023-02-16T02:24:00;102473.34;;;5.27;85.00
67457;BME280;54319;52.038;4.640;2023-02-16T02:26:54;102463.78;;;5.23;85.09
67457;BME280;54319;52.038;4.640;2023-02-16T02:29:39;102467.22;;;5.25;85.18
67457;BME280;54319;52.038;4.640;2023-02-16T02:32:17;102457.81;;;5.29;84.91
67457;BME280;54319;52.038;4.640;2023-02-16T02:35:03;102442.47;;;5.30;84.72
67457;BME280;54319;52.038;4.640;2023-02-16T02:37:44;102450.28;;;5.33;84.57
67457;BME280;54319;52.038;4.640;2023-02-16T02:40:17;102447.47;;;5.34;84.49
67457;BME280;54319;52.038;4.640;2023-02-16T02:42:56;102418.38;;;5.27;84.37
67457;BME280;54319;52.038;4.640;2023-02-16T02:45:26;102431.38;;;5.43;84.12
67457;BME280;54319;52.038;4.640;2023-02-16T02:47:55;102405.28;;;5.32;83.93
67457;BME280;54319;52.038;4.640;2023-02-16T02:50:37;102366.63;;;5.10;83.67
67457;BME280;54319;52.038;4.640;2023-02-16T02:53:10;102425.41;;;5.49;83.72
67457;BME280;54319;52.038;4.640;2023-02-16T02:55:42;102408.88;;;5.42;83.61
67457;BME280;54319;52.038;4.640;2023-02-16T02:58:32;102417.00;;;5.52;83.92
67457;BME280;54319;52.038;4.640;2023-02-16T03:01:19;102416.16;;;5.52;83.96
67457;BME280;54319;52.038;4.640;2023-02-16T03:03:51;102401.16;;;5.47;83.83
67457;BME280;54319;52.038;4.640;2023-02-16T03:06:22;102410.31;;;5.56;83.91
67457;BME280;54319;52.038;4.640;2023-02-16T03:08:56;102389.50;;;5.47;83.48
67457;BME280;54319;52.038;4.640;2023-02-16T03:11:26;102412.44;;;5.62;83.28
67457;BME280;54319;52.038;4.640;2023-02-16T03:14:15;102415.03;;;5.64;83.22
67457;BME280;54319;52.038;4.640;2023-02-16T03:16:44;102405.75;;;5.67;83.16
67457;BME280;54319;52.038;4.640;2023-02-16T03:19:16;102411.03;;;5.68;82.75
67457;BME280;54319;52.038;4.640;2023-02-16T03:22:01;102407.22;;;5.71;82.35
67457;BME280;54319;52.038;4.640;2023-02-16T03:24:46;102413.47;;;5.71;82.37
67457;BME280;54319;52.038;4.640;2023-02-16T03:27:34;102401.78;;;5.71;81.88
67457;BME280;54319;52.038;4.640;2023-02-16T03:30:22;102406.06;;;5.73;81.96
67457;BME280;54319;52.038;4.640;2023-02-16T03:32:51;102396.09;;;5.74;81.33
67457;BME280;54319;52.038;4.640;2023-02-16T03:35:19;102408.78;;;5.83;81.31
67457;BME280;54319;52.038;4.640;2023-02-16T03:37:47;102420.31;;;5.85;81.60
67457;BME280;54319;52.038;4.640;2023-02-16T03:40:15;102385.09;;;5.65;81.55
67457;BME280;54319;52.038;4.640;2023-02-16T03:42:58;102420.16;;;5.87;81.42
67457;BME280;54319;52.038;4.640;2023-02-16T03:45:27;102402.34;;;5.74;81.59
67457;BME280;54319;52.038;4.640;2023-02-16T03:47:55;102418.19;;;5.89;81.41
67457;BME280;54319;52.038;4.640;2023-02-16T03:50:22;102408.34;;;5.78;81.53
67457;BME280;54319;52.038;4.640;2023-02-16T03:52:51;102417.19;;;5.90;81.44
67457;BME280;54319;52.038;4.640;2023-02-16T03:55:18;102405.91;;;5.94;81.57
67457;BME280;54319;52.038;4.640;2023-02-16T03:57:45;102393.53;;;5.82;81.86
67457;BME280;54319;52.038;4.640;2023-02-16T04:00:12;102400.38;;;5.86;81.89
67457;BME280;54319;52.038;4.640;2023-02-16T04:02:41;102374.28;;;5.75;81.66
67457;BME280;54319;52.038;4.640;2023-02-16T04:05:07;102398.66;;;5.85;82.04
67457;BME280;54319;52.038;4.640;2023-02-16T04:07:36;102404.91;;;5.86;82.05
67457;BME280;54319;52.038;4.640;2023-02-16T04:10:02;102407.50;;;5.87;81.71
67457;BME280;54319;52.038;4.640;2023-02-16T04:12:30;102412.91;;;5.87;82.33
67457;BME280;54319;52.038;4.640;2023-02-16T04:15:02;102380.38;;;5.68;81.82
67457;BME280;54319;52.038;4.640;2023-02-16T04:17:30;102408.78;;;5.93;81.91
67457;BME280;54319;52.038;4.640;2023-02-16T04:19:58;102385.38;;;5.72;82.03
67457;BME280;54319;52.038;4.640;2023-02-16T04:22:25;102416.91;;;5.93;81.98
67457;BME280;54319;52.038;4.640;2023-02-16T04:24:52;102358.31;;;5.53;81.93
67457;BME280;54319;52.038;4.640;2023-02-16T04:27:19;102421.47;;;5.92;82.23
67457;BME280;54319;52.038;4.640;2023-02-16T04:29:45;102415.19;;;5.92;82.33
67457;BME280;54319;52.038;4.640;2023-02-16T04:32:12;102403.22;;;5.94;82.13
67457;BME280;54319;52.038;4.640;2023-02-16T04:34:39;102415.03;;;5.93;82.42
67457;BME280;54319;52.038;4.640;2023-02-16T04:37:09;102420.34;;;5.95;82.22
67457;BME280;54319;52.038;4.640;2023-02-16T04:39:36;102405.78;;;5.86;82.34
67457;BME280;54319;52.038;4.640;2023-02-16T04:42:03;102409.22;;;5.98;81.65
67457;BME280;54319;52.038;4.640;2023-02-16T04:44:30;102411.38;;;6.04;81.64
67457;BME280;54319;52.038;4.640;2023-02-16T04:46:57;102401.66;;;6.02;81.91
67457;BME280;54319;52.038;4.640;2023-02-16T04:49:24;102406.34;;;6.00;82.17
67457;BME280;54319;52.038;4.640;2023-02-16T04:51:50;102408.06;;;6.01;81.88
67457;BME280;54319;52.038;4.640;2023-02-16T04:54:19;102400.91;;;6.00;82.12
67457;BME280;54319;52.038;4.640;2023-02-16T04:56:46;102410.03;;;5.99;82.28
67457;BME280;54319;52.038;4.640;2023-02-16T04:59:14;102380.97;;;5.81;82.19
67457;BME280;54319;52.038;4.640;2023-02-16T05:01:41;102373.16;;;5.78;82.59
67457;BME280;54319;52.038;4.640;2023-02-16T05:04:09;102386.81;;;5.86;82.75
67457;BME280;54319;52.038;4.640;2023-02-16T05:06:36;102383.41;;;5.84;82.32
67457;BME280;54319;52.038;4.640;2023-02-16T05:09:05;102366.28;;;5.84;82.79
67457;BME280;54319;52.038;4.640;2023-02-16T05:11:34;102375.28;;;5.84;82.64
67457;BME280;54319;52.038;4.640;2023-02-16T05:14:21;102392.38;;;5.85;82.39
67457;BME280;54319;52.038;4.640;2023-02-16T05:17:07;102396.66;;;5.87;82.71
67457;BME280;54319;52.038;4.640;2023-02-16T05:19:34;102393.25;;;5.85;82.76
67457;BME280;54319;52.038;4.640;2023-02-16T05:22:01;102358.00;;;5.65;82.66
67457;BME280;54319;52.038;4.640;2023-02-16T05:24:29;102382.41;;;5.85;83.06
67457;BME280;54319;52.038;4.640;2023-02-16T05:26:56;102373.28;;;5.86;82.75
67457;BME280;54319;52.038;4.640;2023-02-16T05:29:23;102347.66;;;5.71;83.17
67457;BME280;54319;52.038;4.640;2023-02-16T05:31:50;102387.13;;;5.83;83.22
67457;BME280;54319;52.038;4.640;2023-02-16T05:34:18;102384.94;;;5.87;83.24
67457;BME280;54319;52.038;4.640;2023-02-16T05:36:44;102379.41;;;5.88;82.90
67457;BME280;54319;52.038;4.640;2023-02-16T05:39:12;102367.84;;;5.76;83.34
67457;BME280;54319;52.038;4.640;2023-02-16T05:41:39;102383.69;;;5.81;83.20
67457;BME280;54319;52.038;4.640;2023-02-16T05:44:08;102293.50;;;5.31;82.93
67457;BME280;54319;52.038;4.640;2023-02-16T05:46:36;102362.88;;;5.72;83.26
67457;BME280;54319;52.038;4.640;2023-02-16T05:49:04;102378.69;;;5.86;83.39
67457;BME280;54319;52.038;4.640;2023-02-16T05:51:31;102385.81;;;5.97;83.37
67457;BME280;54319;52.038;4.640;2023-02-16T05:53:59;102390.94;;;6.00;83.83
67457;BME280;54319;52.038;4.640;2023-02-16T05:56:26;102389.00;;;6.02;83.75
67457;BME280;54319;52.038;4.640;2023-02-16T05:58:53;102379.84;;;6.03;83.71
67457;BME280;54319;52.038;4.640;2023-02-16T06:01:21;102382.16;;;6.08;83.68
67457;BME280;54319;52.038;4.640;2023-02-16T06:03:50;102364.56;;;5.92;83.89
67457;BME280;54319;52.038;4.640;2023-02-16T06:06:16;102383.56;;;6.02;83.95
67457;BME280;54319;52.038;4.640;2023-02-16T06:08:44;102388.66;;;5.96;84.37
67457;BME280;54319;52.038;4.640;2023-02-16T06:11:10;102320.97;;;5.56;84.55
67457;BME280;54319;52.038;4.640;2023-02-16T06:13:51;102386.25;;;5.92;84.71
67457;BME280;54319;52.038;4.640;2023-02-16T06:16:19;102381.41;;;5.86;84.96
67457;BME280;54319;52.038;4.640;2023-02-16T06:18:48;102377.56;;;5.89;84.85
67457;BME280;54319;52.038;4.640;2023-02-16T06:21:14;102384.53;;;5.91;84.78
67457;BME280;54319;52.038;4.640;2023-02-16T06:23:41;102361.59;;;5.76;84.61
67457;BME280;54319;52.038;4.640;2023-02-16T06:26:08;102335.94;;;5.60;84.75
67457;BME280;54319;52.038;4.640;2023-02-16T06:28:35;102389.66;;;5.94;84.99
67457;BME280;54319;52.038;4.640;2023-02-16T06:31:02;102380.41;;;5.87;84.71
67457;BME280;54319;52.038;4.640;2023-02-16T06:33:29;102395.50;;;6.00;84.78
67457;BME280;54319;52.038;4.640;2023-02-16T06:35:57;102389.13;;;6.01;84.73
67457;BME280;54319;52.038;4.640;2023-02-16T06:38:24;102366.44;;;5.82;84.60
67457;BME280;54319;52.038;4.640;2023-02-16T06:40:51;102399.09;;;6.00;84.55
67457;BME280;54319;52.038;4.640;2023-02-16T06:43:18;102389.94;;;5.91;84.92
67457;BME280;54319;52.038;4.640;2023-02-16T06:45:45;102386.13;;;5.94;84.96
67457;BME280;54319;52.038;4.640;2023-02-16T06:48:13;102403.63;;;6.00;84.97
67457;BME280;54319;52.038;4.640;2023-02-16T06:50:40;102408.06;;;6.01;84.70
67457;BME280;54319;52.038;4.640;2023-02-16T06:53:09;102405.09;;;6.04;84.79
67457;BME280;54319;52.038;4.640;2023-02-16T06:55:36;102410.38;;;6.05;84.80
67457;BME280;54319;52.038;4.640;2023-02-16T06:58:03;102416.63;;;6.06;84.69
67457;BME280;54319;52.038;4.640;2023-02-16T07:00:30;102402.38;;;6.04;84.65
67457;BME280;54319;52.038;4.640;2023-02-16T07:02:57;102425.22;;;6.11;84.73
67457;BME280;54319;52.038;4.640;2023-02-16T07:05:24;102421.34;;;6.14;84.87
67457;BME280;54319;52.038;4.640;2023-02-16T07:07:52;102422.91;;;6.16;84.90
67457;BME280;54319;52.038;4.640;2023-02-16T07:10:20;102423.34;;;6.21;84.74
67457;BME280;54319;52.038;4.640;2023-02-16T07:12:47;102428.75;;;6.21;84.88
67457;BME280;54319;52.038;4.640;2023-02-16T07:15:13;102404.66;;;6.18;84.79
67457;BME280;54319;52.038;4.640;2023-02-16T07:17:41;102417.63;;;6.25;84.75
67457;BME280;54319;52.038;4.640;2023-02-16T07:20:08;102429.03;;;6.28;84.48
67457;BME280;54319;52.038;4.640;2023-02-16T07:22:37;102427.59;;;6.34;84.60
67457;BME280;54319;52.038;4.640;2023-02-16T07:25:04;102419.88;;;6.39;84.31
67457;BME280;54319;52.038;4.640;2023-02-16T07:27:33;102426.00;;;6.41;84.16
67457;BME280;54319;52.038;4.640;2023-02-16T07:30:00;102420.31;;;6.44;83.85
67457;BME280;54319;52.038;4.640;2023-02-16T07:32:28;102428.88;;;6.49;83.63
67457;BME280;54319;52.038;4.640;2023-02-16T07:34:54;102428.69;;;6.51;83.26
67457;BME280;54319;52.038;4.640;2023-02-16T07:37:21;102434.53;;;6.56;83.42
67457;BME280;54319;52.038;4.640;2023-02-16T07:39:48;102438.81;;;6.59;83.21
67457;BME280;54319;52.038;4.640;2023-02-16T07:42:15;102446.25;;;6.57;83.31
67457;BME280;54319;52.038;4.640;2023-02-16T07:44:45;102447.97;;;6.58;83.31
67457;BME280;54319;52.038;4.640;2023-02-16T07:47:11;102449.66;;;6.59;83.27
67457;BME280;54319;52.038;4.640;2023-02-16T07:49:38;102452.22;;;6.60;83.13
67457;BME280;54319;52.038;4.640;2023-02-16T07:52:05;102455.94;;;6.59;83.23
67457;BME280;54319;52.038;4.640;2023-02-16T07:54:33;102440.56;;;6.50;83.44
67457;BME280;54319;52.038;4.640;2023-02-16T07:56:59;102449.97;;;6.56;83.03
67457;BME280;54319;52.038;4.640;2023-02-16T07:59:26;102466.66;;;6.61;82.98
67457;BME280;54319;52.038;4.640;2023-02-16T08:01:54;102465.78;;;6.60;82.98
67457;BME280;54319;52.038;4.640;2023-02-16T08:04:22;102462.34;;;6.58;83.30
67457;BME280;54319;52.038;4.640;2023-02-16T08:06:48;102451.56;;;6.48;83.30
67457;BME280;54319;52.038;4.640;2023-02-16T08:09:16;102467.78;;;6.58;83.51
67457;BME280;54319;52.038;4.640;2023-02-16T08:11:43;102472.06;;;6.61;83.44
67457;BME280;54319;52.038;4.640;2023-02-16T08:14:10;102462.94;;;6.62;83.64
67457;BME280;54319;52.038;4.640;2023-02-16T08:16:37;102458.22;;;6.54;84.62
67457;BME280;54319;52.038;4.640;2023-02-16T08:19:05;102475.22;;;6.56;85.25
67457;BME280;54319;52.038;4.640;2023-02-16T08:21:34;102468.25;;;6.54;86.02
67457;BME280;54319;52.038;4.640;2023-02-16T08:24:05;102459.41;;;6.32;87.17
67457;BME280;54319;52.038;4.640;2023-02-16T08:26:34;102486.22;;;6.45;87.79
67457;BME280;54319;52.038;4.640;2023-02-16T08:29:03;102482.81;;;6.43;88.38
67457;BME280;54319;52.038;4.640;2023-02-16T08:31:32;102479.50;;;6.39;88.79
67457;BME280;54319;52.038;4.640;2023-02-16T08:34:01;102457.56;;;6.22;89.07
67457;BME280;54319;52.038;4.640;2023-02-16T08:36:31;102475.97;;;6.29;89.77
67457;BME280;54319;52.038;4.640;2023-02-16T08:38:59;102489.09;;;6.33;89.89
67457;BME280;54319;52.038;4.640;2023-02-16T08:41:28;102485.09;;;6.28;90.01
67457;BME280;54319;52.038;4.640;2023-02-16T08:43:57;102486.66;;;6.30;90.24
67457;BME280;54319;52.038;4.640;2023-02-16T08:46:25;102480.66;;;6.27;90.38
67457;BME280;54319;52.038;4.640;2023-02-16T08:48:53;102468.53;;;6.21;90.40
67457;BME280;54319;52.038;4.640;2023-02-16T08:51:21;102459.69;;;6.19;90.92
67457;BME280;54319;52.038;4.640;2023-02-16T08:53:51;102475.53;;;6.23;91.17
67457;BME280;54319;52.038;4.640;2023-02-16T08:56:17;102473.66;;;6.24;91.44
67457;BME280;54319;52.038;4.640;2023-02-16T08:58:45;102476.97;;;6.28;91.39
67457;BME280;54319;52.038;4.640;2023-02-16T09:01:12;102474.66;;;6.33;91.83
67457;BME280;54319;52.038;4.640;2023-02-16T09:03:42;102472.78;;;6.43;91.72
67457;BME280;54319;52.038;4.640;2023-02-16T09:06:10;102465.94;;;6.49;91.27
67457;BME280;54319;52.038;4.640;2023-02-16T09:08:38;102478.22;;;6.63;91.36
67457;BME280;54319;52.038;4.640;2023-02-16T09:11:06;102472.91;;;6.71;91.27
67457;BME280;54319;52.038;4.640;2023-02-16T09:13:35;102466.75;;;6.79;91.19
67457;BME280;54319;52.038;4.640;2023-02-16T09:16:02;102465.59;;;6.81;90.65
67457;BME280;54319;52.038;4.640;2023-02-16T09:18:30;102470.75;;;6.85;90.41
67457;BME280;54319;52.038;4.640;2023-02-16T09:21:01;102479.88;;;6.84;90.52
67457;BME280;54319;52.038;4.640;2023-02-16T09:23:28;102482.72;;;6.92;90.14
67457;BME280;54319;52.038;4.640;2023-02-16T09:25:55;102464.31;;;6.86;90.17
67457;BME280;54319;52.038;4.640;2023-02-16T09:28:23;102480.84;;;6.92;90.37
67457;BME280;54319;52.038;4.640;2023-02-16T09:30:50;102469.03;;;6.84;90.40
67457;BME280;54319;52.038;4.640;2023-02-16T09:33:18;102474.41;;;6.93;90.46
67457;BME280;54319;52.038;4.640;2023-02-16T09:35:46;102473.78;;;7.09;90.34
67457;BME280;54319;52.038;4.640;2023-02-16T09:38:14;102480.63;;;7.14;90.06
67457;BME280;54319;52.038;4.640;2023-02-16T09:40:42;102479.47;;;7.16;90.15
67457;BME280;54319;52.038;4.640;2023-02-16T09:43:27;102461.97;;;7.29;90.45
67457;BME280;54319;52.038;4.640;2023-02-16T09:45:57;102464.50;;;7.40;90.27
67457;BME280;54319;52.038;4.640;2023-02-16T09:48:33;102463.81;;;7.56;90.46
67457;BME280;54319;52.038;4.640;2023-02-16T09:51:03;102432.09;;;7.57;90.04
67457;BME280;54319;52.038;4.640;2023-02-16T09:53:35;102437.69;;;7.73;89.80
67457;BME280;54319;52.038;4.640;2023-02-16T09:56:11;102452.72;;;7.95;89.28
67457;BME280;54319;52.038;4.640;2023-02-16T09:58:41;102466.50;;;7.84;88.81
67457;BME280;54319;52.038;4.640;2023-02-16T10:01:18;102455.88;;;7.91;88.48
67457;BME280;54319;52.038;4.640;2023-02-16T10:03:53;102463.41;;;7.97;87.63
67457;BME280;54319;52.038;4.640;2023-02-16T10:06:29;102427.13;;;7.70;87.94
67457;BME280;54319;52.038;4.640;2023-02-16T10:09:05;102450.69;;;7.97;87.93
67457;BME280;54319;52.038;4.640;2023-02-16T10:11:35;102455.44;;;7.95;88.42
67457;BME280;54319;52.038;4.640;2023-02-16T10:14:13;102444.00;;;7.92;88.39
67457;BME280;54319;52.038;4.640;2023-02-16T10:16:50;102450.06;;;8.04;88.03
67457;BME280;54319;52.038;4.640;2023-02-16T10:19:21;102449.75;;;8.07;88.21
67457;BME280;54319;52.038;4.640;2023-02-16T10:21:52;102451.16;;;8.11;88.24
67457;BME280;54319;52.038;4.640;2023-02-16T10:24:23;102443.13;;;8.09;88.27
67457;BME280;54319;52.038;4.640;2023-02-16T10:26:57;102432.75;;;8.05;87.86
67457;BME280;54319;52.038;4.640;2023-02-16T10:29:27;102444.00;;;8.10;87.85
67457;BME280;54319;52.038;4.640;2023-02-16T10:32:02;102447.97;;;8.16;88.04
67457;BME280;54319;52.038;4.640;2023-02-16T10:34:42;102433.88;;;8.20;88.60
67457;BME280;54319;52.038;4.640;2023-02-16T10:37:18;102448.94;;;8.33;88.01
67457;BME280;54319;52.038;4.640;2023-02-16T10:39:54;102454.31;;;8.24;88.05
67457;BME280;54319;52.038;4.640;2023-02-16T10:42:28;102443.75;;;8.21;87.78
67457;BME280;54319;52.038;4.640;2023-02-16T10:45:04;102417.19;;;8.15;88.36
67457;BME280;54319;52.038;4.640;2023-02-16T10:47:44;102443.81;;;8.30;87.80
67457;BME280;54319;52.038;4.640;2023-02-16T10:50:17;102443.03;;;8.37;87.97
67457;BME280;54319;52.038;4.640;2023-02-16T10:52:46;102449.34;;;8.38;87.51
67457;BME280;54319;52.038;4.640;2023-02-16T10:55:15;102406.59;;;8.04;87.52
67457;BME280;54319;52.038;4.640;2023-02-16T10:57:50;102448.69;;;8.44;87.37
67457;BME280;54319;52.038;4.640;2023-02-16T11:00:23;102457.56;;;8.46;87.83
67457;BME280;54319;52.038;4.640;2023-02-16T11:02:55;102457.19;;;8.41;87.86
67457;BME280;54319;52.038;4.640;2023-02-16T11:05:31;102455.28;;;8.60;87.68
67457;BME280;54319;52.038;4.640;2023-02-16T11:08:00;102451.47;;;8.71;87.28
67457;BME280;54319;52.038;4.640;2023-02-16T11:10:36;102449.00;;;8.86;86.83
67457;BME280;54319;52.038;4.640;2023-02-16T11:13:05;102446.88;;;8.97;85.97
67457;BME280;54319;52.038;4.640;2023-02-16T11:15:34;102440.75;;;9.04;86.83
67457;BME280;54319;52.038;4.640;2023-02-16T11:18:07;102427.59;;;8.91;85.99
67457;BME280;54319;52.038;4.640;2023-02-16T11:20:50;102400.34;;;8.82;85.57
67457;BME280;54319;52.038;4.640;2023-02-16T11:23:22;102425.16;;;9.14;86.38
67457;BME280;54319;52.038;4.640;2023-02-16T11:25:58;102431.03;;;9.36;85.55
67457;BME280;54319;52.038;4.640;2023-02-16T11:28:30;102423.69;;;9.36;85.25
67457;BME280;54319;52.038;4.640;2023-02-16T11:31:00;102388.41;;;9.26;85.11
67457;BME280;54319;52.038;4.640;2023-02-16T11:33:31;102387.09;;;9.31;84.27
67457;BME280;54319;52.038;4.640;2023-02-16T11:35:59;102413.38;;;9.65;83.36
67457;BME280;54319;52.038;4.640;2023-02-16T11:38:31;102390.34;;;9.43;83.98
67457;BME280;54319;52.038;4.640;2023-02-16T11:41:00;102416.22;;;9.38;83.83
67457;BME280;54319;52.038;4.640;2023-02-16T11:43:31;102422.38;;;9.49;83.32
67457;BME280;54319;52.038;4.640;2023-02-16T11:46:03;102385.91;;;9.33;84.08
67457;BME280;54319;52.038;4.640;2023-02-16T11:48:34;102410.84;;;9.63;84.53
67457;BME280;54319;52.038;4.640;2023-02-16T11:51:02;102388.69;;;9.75;83.32
67457;BME280;54319;52.038;4.640;2023-02-16T11:53:31;102401.66;;;9.81;82.18
67457;BME280;54319;52.038;4.640;2023-02-16T11:56:19;102394.84;;;9.93;82.10
67457;BME280;54319;52.038;4.640;2023-02-16T11:59:03;102391.28;;;10.09;82.47
67457;BME280;54319;52.038;4.640;2023-02-16T12:04:34;102380.19;;;10.03;81.85
67457;BME280;54319;52.038;4.640;2023-02-16T12:07:15;102335.88;;;9.84;81.14
67457;BME280;54319;52.038;4.640;2023-02-16T12:09:52;102338.63;;;9.92;80.23
67457;BME280;54319;52.038;4.640;2023-02-16T12:12:31;102358.19;;;10.21;80.96
67457;BME280;54319;52.038;4.640;2023-02-16T12:15:02;102346.44;;;10.28;81.12
67457;BME280;54319;52.038;4.640;2023-02-16T12:17:46;102357.84;;;10.40;79.10
67457;BME280;54319;52.038;4.640;2023-02-16T12:20:29;102338.59;;;10.34;78.37
67457;BME280;54319;52.038;4.640;2023-02-16T12:23:06;102355.41;;;10.62;79.14
67457;BME280;54319;52.038;4.640;2023-02-16T12:25:40;102340.66;;;10.88;78.57
67457;BME280;54319;52.038;4.640;2023-02-16T12:28:15;102343.53;;;10.86;77.23
67457;BME280;54319;52.038;4.640;2023-02-16T12:30:54;102335.97;;;10.97;77.78
67457;BME280;54319;52.038;4.640;2023-02-16T12:33:36;102336.31;;;11.02;77.45
67457;BME280;54319;52.038;4.640;2023-02-16T12:39:16;102333.66;;;11.17;75.85
67457;BME280;54319;52.038;4.640;2023-02-16T12:42:14;102285.94;;;10.73;76.08
67457;BME280;54319;52.038;4.640;2023-02-16T12:44:46;102337.25;;;11.18;76.15
67457;BME280;54319;52.038;4.640;2023-02-16T12:47:18;102338.84;;;11.35;75.76
67457;BME280;54319;52.038;4.640;2023-02-16T12:49:52;102332.47;;;11.43;74.83
67457;BME280;54319;52.038;4.640;2023-02-16T12:52:37;102335.50;;;11.25;73.96
67457;BME280;54319;52.038;4.640;2023-02-16T12:55:18;102334.97;;;11.29;74.04
67457;BME280;54319;52.038;4.640;2023-02-16T12:57:53;102328.91;;;11.19;74.07
67457;BME280;54319;52.038;4.640;2023-02-16T13:00:36;102297.59;;;10.98;74.72
67457;BME280;54319;52.038;4.640;2023-02-16T13:03:14;102266.22;;;10.94;73.78
67457;BME280;54319;52.038;4.640;2023-02-16T13:05:48;102292.38;;;11.12;73.41
67457;BME280;54319;52.038;4.640;2023-02-16T13:08:23;102306.22;;;11.10;74.35
67457;BME280;54319;52.038;4.640;2023-02-16T13:10:55;102308.09;;;11.10;73.85
67457;BME280;54319;52.038;4.640;2023-02-16T13:13:26;102299.22;;;11.08;74.32
67457;BME280;54319;52.038;4.640;2023-02-16T13:16:00;102267.72;;;10.97;74.25
67457;BME280;54319;52.038;4.640;2023-02-16T13:18:35;102276.19;;;11.10;73.94
67457;BME280;54319;52.038;4.640;2023-02-16T13:21:08;102256.94;;;11.04;74.64
67457;BME280;54319;52.038;4.640;2023-02-16T13:23:51;102278.78;;;11.27;73.27
67457;BME280;54319;52.038;4.640;2023-02-16T13:26:44;102277.41;;;11.31;72.86
67457;BME280;54319;52.038;4.640;2023-02-16T13:32:31;102271.16;;;10.99;72.89